createdAt,value
2018-03-09T00:00:11.126Z,5.60
2018-03-09T00:02:42.130Z,7.00
2018-03-09T00:05:13.290Z,5.00
2018-03-09T00:07:44.523Z,8.43
2018-03-09T00:10:16.416Z,4.65
2018-03-09T00:12:47.854Z,4.93
2018-03-09T00:15:18.904Z,6.12
2018-03-09T00:17:52.244Z,9.02
2018-03-09T00:20:25.833Z,6.50
2018-03-09T00:22:56.775Z,9.23
2018-03-09T00:25:27.929Z,7.03
2018-03-09T00:27:58.760Z,5.15
2018-03-09T00:30:29.592Z,5.97
2018-03-09T00:33:00.469Z,4.17
2018-03-09T00:35:31.289Z,5.50
2018-03-09T00:38:02.118Z,4.37
2018-03-09T00:40:32.960Z,4.13
2018-03-09T00:43:03.879Z,6.70
2018-03-09T00:45:34.765Z,4.43
2018-03-09T00:48:05.614Z,5.27
2018-03-09T00:50:36.489Z,4.70
2018-03-09T00:53:10.218Z,4.23
2018-03-09T00:55:41.052Z,5.28
2018-03-09T00:58:12.913Z,4.03
2018-03-09T01:00:43.753Z,4.15
2018-03-09T01:03:14.637Z,5.63
2018-03-09T01:05:45.550Z,2.00
2018-03-09T01:08:16.357Z,1.73
2018-03-09T01:10:47.196Z,1.60
2018-03-09T01:13:18.020Z,1.73
2018-03-09T01:15:48.934Z,1.50
2018-03-09T01:18:19.778Z,1.40
2018-03-09T01:20:50.662Z,1.13
2018-03-09T01:23:21.469Z,1.30
2018-03-09T01:25:52.350Z,1.43
2018-03-09T01:28:23.221Z,1.30
2018-03-09T01:30:55.088Z,1.30
2018-03-09T01:33:25.954Z,0.90
2018-03-09T01:35:56.824Z,1.00
2018-03-09T01:38:27.667Z,1.20
2018-03-09T01:40:58.476Z,1.30
2018-03-09T01:43:29.271Z,0.80
2018-03-09T01:46:00.108Z,0.73
2018-03-09T01:48:30.943Z,0.70
2018-03-09T01:51:01.781Z,0.60
2018-03-09T01:53:32.616Z,0.80
2018-03-09T01:56:03.516Z,0.80
2018-03-09T01:58:34.397Z,2.20
2018-03-09T02:01:05.257Z,0.70
2018-03-09T02:03:36.079Z,2.40
2018-03-09T02:06:06.945Z,0.50
2018-03-09T02:08:37.800Z,3.23
2018-03-09T02:11:08.638Z,0.90
2018-03-09T02:13:39.433Z,0.70
2018-03-09T02:16:10.312Z,1.03
2018-03-09T02:18:41.154Z,1.83
2018-03-09T02:21:12.022Z,1.20
2018-03-09T02:23:42.858Z,1.17
2018-03-09T02:26:13.711Z,0.70
2018-03-09T02:28:44.552Z,1.00
2018-03-09T02:31:15.405Z,0.87
2018-03-09T02:33:46.299Z,1.03
2018-03-09T02:36:17.135Z,0.80
2018-03-09T02:38:47.982Z,0.83
2018-03-09T02:41:18.829Z,0.93
2018-03-09T02:43:49.653Z,1.07
2018-03-09T02:46:20.509Z,0.93
2018-03-09T02:48:51.324Z,0.73
2018-03-09T02:51:22.164Z,0.90
2018-03-09T02:53:52.982Z,2.07
2018-03-09T02:56:23.847Z,1.10
2018-03-09T02:58:54.756Z,0.97
2018-03-09T03:01:25.625Z,2.00
2018-03-09T03:03:56.426Z,0.80
2018-03-09T03:06:28.279Z,2.23
2018-03-09T03:08:59.109Z,1.20
2018-03-09T03:11:29.942Z,1.53
2018-03-09T03:14:00.789Z,1.13
2018-03-09T03:16:31.693Z,1.10
2018-03-09T03:19:02.530Z,1.40
2018-03-09T03:21:33.362Z,3.13
2018-03-09T03:24:04.201Z,2.40
2018-03-09T03:26:35.097Z,0.80
2018-03-09T03:29:05.895Z,1.20
2018-03-09T03:31:36.683Z,0.77
2018-03-09T03:34:07.526Z,0.90
2018-03-09T03:36:38.362Z,0.77
2018-03-09T03:39:09.245Z,0.90
2018-03-09T03:41:40.097Z,1.83
2018-03-09T03:44:10.886Z,2.87
2018-03-09T03:46:41.696Z,1.80
2018-03-09T03:49:12.543Z,1.70
2018-03-09T03:51:43.377Z,0.90
2018-03-09T03:54:14.176Z,1.23
2018-03-09T03:56:45.036Z,1.13
2018-03-09T03:59:15.912Z,1.33
2018-03-09T04:01:46.733Z,0.90
2018-03-09T04:04:17.601Z,1.20
2018-03-09T04:06:48.413Z,1.47
2018-03-09T04:09:19.216Z,1.03
2018-03-09T04:11:50.053Z,1.33
2018-03-09T04:14:20.865Z,0.87
2018-03-09T04:16:51.762Z,2.20
2018-03-09T04:19:22.579Z,0.60
2018-03-09T04:21:53.458Z,1.73
2018-03-09T04:24:24.241Z,0.70
2018-03-09T04:26:55.149Z,1.77
2018-03-09T04:29:25.985Z,1.83
2018-03-09T04:31:56.854Z,0.67
2018-03-09T04:34:27.678Z,0.90
2018-03-09T04:36:58.520Z,0.73
2018-03-09T04:39:29.390Z,1.63
2018-03-09T04:42:00.260Z,3.33
2018-03-09T04:44:31.089Z,0.70
2018-03-09T04:47:02.002Z,1.47
2018-03-09T04:49:32.914Z,0.80
2018-03-09T04:52:03.773Z,0.77
2018-03-09T04:54:34.618Z,0.60
2018-03-09T04:57:05.493Z,2.13
2018-03-09T04:59:36.314Z,2.30
2018-03-09T05:02:07.174Z,2.13
2018-03-09T05:04:38.008Z,1.00
2018-03-09T05:07:08.849Z,1.03
2018-03-09T05:09:39.710Z,2.10
2018-03-09T05:12:10.623Z,1.67
2018-03-09T05:14:41.457Z,1.10
2018-03-09T05:17:12.315Z,0.70
2018-03-09T05:19:43.255Z,0.80
2018-03-09T05:22:14.096Z,1.63
2018-03-09T05:24:44.923Z,0.70
2018-03-09T05:27:15.799Z,1.70
2018-03-09T05:29:46.709Z,1.23
2018-03-09T05:32:17.616Z,0.60
2018-03-09T05:34:48.496Z,0.80
2018-03-09T05:37:19.382Z,0.60
2018-03-09T05:39:50.173Z,0.70
2018-03-09T05:42:20.998Z,0.80
2018-03-09T05:44:51.921Z,0.60
2018-03-09T05:47:22.791Z,1.33
2018-03-09T05:49:53.602Z,1.30
2018-03-09T05:52:24.434Z,1.70
2018-03-09T05:54:55.233Z,0.60
2018-03-09T05:57:26.250Z,0.60
2018-03-09T05:59:57.050Z,0.88
2018-03-09T06:02:27.843Z,0.70
2018-03-09T06:04:58.679Z,0.70
2018-03-09T06:07:29.518Z,0.70
2018-03-09T06:10:00.325Z,0.80
2018-03-09T06:12:31.194Z,1.20
2018-03-09T06:15:02.029Z,1.20
2018-03-09T06:17:32.830Z,0.70
2018-03-09T06:20:03.647Z,2.10
2018-03-09T06:22:34.466Z,1.30
2018-03-09T06:25:05.367Z,1.77
2018-03-09T06:27:36.216Z,1.00
2018-03-09T06:30:07.051Z,1.13
2018-03-09T06:32:37.889Z,1.33
2018-03-09T06:35:08.751Z,1.97
2018-03-09T06:37:39.624Z,1.50
2018-03-09T06:40:10.487Z,2.17
2018-03-09T06:42:41.350Z,1.87
2018-03-09T06:45:12.164Z,3.23
2018-03-09T06:47:43.035Z,2.00
2018-03-09T06:50:13.855Z,1.30
2018-03-09T06:52:44.708Z,1.80
2018-03-09T06:55:15.544Z,1.47
2018-03-09T06:57:46.380Z,1.17
2018-03-09T07:00:17.208Z,1.93
2018-03-09T07:02:48.075Z,1.50
2018-03-09T07:05:18.876Z,0.80
2018-03-09T07:07:49.729Z,1.43
2018-03-09T07:10:20.568Z,1.73
2018-03-09T07:12:51.458Z,1.33
2018-03-09T07:15:22.264Z,2.70
2018-03-09T07:17:53.146Z,2.70
2018-03-09T07:20:23.930Z,1.13
2018-03-09T07:22:54.880Z,2.10
2018-03-09T07:25:25.706Z,1.57
2018-03-09T07:27:56.586Z,2.90
2018-03-09T07:30:27.395Z,1.50
2018-03-09T07:32:58.265Z,2.10
2018-03-09T07:35:29.139Z,1.47
2018-03-09T07:38:00.029Z,1.40
2018-03-09T07:40:30.828Z,3.50
2018-03-09T07:43:01.679Z,3.13
2018-03-09T07:45:32.493Z,6.40
2018-03-09T07:48:03.327Z,1.57
2018-03-09T07:50:34.124Z,2.03
2018-03-09T07:53:04.959Z,1.17
2018-03-09T07:55:35.931Z,3.10
2018-03-09T07:58:06.783Z,3.63
2018-03-09T08:00:37.642Z,1.80
2018-03-09T08:03:08.499Z,3.40
2018-03-09T08:05:39.314Z,1.50
2018-03-09T08:08:10.128Z,2.83
2018-03-09T08:10:40.919Z,1.00
2018-03-09T08:13:11.753Z,2.67
2018-03-09T08:15:42.600Z,1.33
2018-03-09T08:18:13.434Z,2.60
2018-03-09T08:20:44.269Z,1.40
2018-03-09T08:23:15.130Z,2.70
2018-03-09T08:25:45.966Z,1.53
2018-03-09T08:28:16.791Z,2.63
2018-03-09T08:30:47.614Z,0.70
2018-03-09T08:33:18.532Z,1.87
2018-03-09T08:35:49.367Z,3.73
2018-03-09T08:38:20.173Z,1.20
2018-03-09T08:40:50.989Z,2.73
2018-03-09T08:43:21.822Z,8.93
2018-03-09T08:45:52.629Z,10.63
2018-03-09T08:48:23.515Z,2.30
2018-03-09T08:50:54.395Z,3.43
2018-03-09T08:53:25.251Z,2.60
2018-03-09T08:55:56.065Z,3.50
2018-03-09T08:58:26.868Z,2.70
2018-03-09T09:00:57.702Z,3.10
2018-03-09T09:03:28.544Z,2.43
2018-03-09T09:05:59.372Z,2.10
2018-03-09T09:08:30.216Z,2.60
2018-03-09T09:11:01.069Z,3.03
2018-03-09T09:13:31.893Z,3.50
2018-03-09T09:16:02.793Z,1.67
2018-03-09T09:18:33.716Z,2.60
2018-03-09T09:21:04.586Z,1.13
2018-03-09T09:23:35.385Z,2.50
2018-03-09T09:26:06.263Z,2.00
2018-03-09T09:28:37.165Z,2.60
2018-03-09T09:31:08.044Z,1.57
2018-03-09T09:33:39.016Z,2.03
2018-03-09T09:36:09.855Z,4.97
2018-03-09T09:38:40.750Z,3.20
2018-03-09T09:41:11.690Z,1.37
2018-03-09T09:43:42.537Z,1.17
2018-03-09T09:46:13.374Z,1.63
2018-03-09T09:48:44.266Z,1.83
2018-03-09T09:51:15.168Z,1.53
2018-03-09T09:53:46.070Z,2.00
2018-03-09T09:56:16.878Z,1.50
2018-03-09T09:58:47.730Z,1.03
2018-03-09T10:01:18.544Z,0.80
2018-03-09T10:03:49.388Z,2.10
2018-03-09T10:06:20.193Z,1.73
2018-03-09T10:08:51.092Z,1.00
2018-03-09T10:11:21.917Z,1.23
2018-03-09T10:13:52.750Z,1.60
2018-03-09T10:16:23.592Z,1.83
2018-03-09T10:18:54.431Z,1.37
2018-03-09T10:21:25.263Z,1.77
2018-03-09T10:23:56.097Z,1.03
2018-03-09T10:26:26.897Z,1.57
2018-03-09T10:28:57.730Z,1.23
2018-03-09T10:31:28.547Z,1.00
2018-03-09T10:33:59.424Z,1.03
2018-03-09T10:36:31.314Z,1.47
2018-03-09T10:39:02.263Z,0.90
2018-03-09T10:41:33.061Z,1.20
2018-03-09T10:44:03.952Z,2.13
2018-03-09T10:46:34.796Z,2.90
2018-03-09T10:49:05.631Z,1.83
2018-03-09T10:51:36.458Z,3.57
2018-03-09T10:54:07.298Z,2.00
2018-03-09T10:56:38.101Z,3.20
2018-03-09T10:59:08.977Z,2.27
2018-03-09T11:01:39.809Z,3.37
2018-03-09T11:04:10.651Z,1.70
2018-03-09T11:06:41.457Z,1.90
2018-03-09T11:09:12.298Z,3.33
2018-03-09T11:11:43.113Z,1.83
2018-03-09T11:14:13.984Z,2.93
2018-03-09T11:16:44.818Z,2.80
2018-03-09T11:19:15.638Z,2.33
2018-03-09T11:21:46.490Z,1.97
2018-03-09T11:24:17.355Z,2.80
2018-03-09T11:26:48.198Z,1.83
2018-03-09T11:29:19.095Z,1.90
2018-03-09T11:31:49.949Z,1.70
2018-03-09T11:34:20.795Z,2.40
2018-03-09T11:36:51.638Z,2.80
2018-03-09T11:39:22.498Z,2.30
2018-03-09T11:41:53.314Z,3.03
2018-03-09T11:44:24.139Z,2.60
2018-03-09T11:46:54.993Z,5.13
2018-03-09T11:49:27.986Z,1.97
2018-03-09T11:51:58.806Z,3.15
2018-03-09T11:54:29.692Z,2.10
2018-03-09T11:57:00.665Z,1.63
2018-03-09T11:59:31.524Z,2.00
2018-03-09T12:02:02.314Z,2.70
2018-03-09T12:04:33.140Z,1.60
2018-03-09T12:07:03.973Z,3.73
2018-03-09T12:09:34.883Z,1.63
2018-03-09T12:12:05.758Z,1.63
2018-03-09T12:14:37.626Z,2.17
2018-03-09T12:17:08.472Z,2.15
2018-03-09T12:19:39.347Z,3.50
2018-03-09T12:22:10.153Z,3.77
2018-03-09T12:24:41.017Z,4.40
2018-03-09T12:27:11.851Z,2.47
2018-03-09T12:29:42.656Z,3.50
2018-03-09T12:32:13.468Z,3.23
2018-03-09T12:34:44.301Z,2.50
2018-03-09T12:37:15.152Z,2.90
2018-03-09T12:39:45.976Z,2.63
2018-03-09T12:42:16.768Z,2.43
2018-03-09T12:44:47.579Z,3.13
2018-03-09T12:47:18.407Z,1.90
2018-03-09T12:49:49.247Z,2.00
2018-03-09T12:52:20.064Z,2.63
2018-03-09T12:54:50.896Z,4.90
2018-03-09T12:57:21.717Z,2.23
2018-03-09T12:59:52.531Z,2.63
2018-03-09T13:02:23.326Z,2.23
2018-03-09T13:04:54.158Z,2.37
2018-03-09T13:07:25.000Z,5.80
2018-03-09T13:09:55.961Z,3.30
2018-03-09T13:12:26.781Z,3.93
2018-03-09T13:18:06.216Z,2.62
2018-03-09T13:20:37.048Z,2.92
2018-03-09T13:23:07.859Z,3.27
2018-03-09T13:25:38.675Z,2.53
2018-03-09T13:28:09.476Z,3.33
2018-03-09T13:30:40.373Z,2.70
2018-03-09T13:33:11.173Z,2.67
2018-03-09T13:35:43.100Z,3.63
2018-03-09T13:38:13.943Z,2.83
2018-03-09T13:40:44.774Z,3.23
2018-03-09T13:43:18.914Z,2.50
2018-03-09T13:45:53.246Z,5.18
2018-03-09T13:48:24.870Z,3.50
2018-03-09T13:50:55.702Z,6.25
2018-03-09T13:53:26.512Z,3.10
2018-03-09T13:55:57.335Z,3.50
2018-03-09T13:58:28.151Z,3.63
2018-03-09T14:00:58.982Z,4.10
2018-03-09T14:03:29.788Z,4.23
2018-03-09T14:06:00.618Z,3.30
2018-03-09T14:08:31.507Z,2.73
2018-03-09T14:11:02.297Z,3.47
2018-03-09T14:13:33.096Z,5.90
2018-03-09T14:16:03.938Z,3.50
2018-03-09T14:18:34.756Z,3.40
2018-03-09T14:21:05.572Z,4.50
2018-03-09T14:23:36.372Z,3.03
2018-03-09T14:26:07.240Z,5.73
2018-03-09T14:28:38.073Z,3.23
2018-03-09T14:31:08.914Z,3.30
2018-03-09T14:33:39.772Z,5.00
2018-03-09T14:36:10.765Z,3.23
2018-03-09T14:38:41.487Z,5.30
2018-03-09T14:41:12.302Z,5.63
2018-03-09T14:43:43.152Z,3.37
2018-03-09T14:46:14.027Z,4.20
2018-03-09T14:48:44.833Z,3.20
2018-03-09T14:51:15.737Z,3.23
2018-03-09T14:53:46.544Z,3.83
2018-03-09T14:56:17.393Z,2.97
2018-03-09T14:58:48.204Z,3.90
2018-03-09T15:01:19.061Z,3.90
2018-03-09T15:03:49.909Z,4.50
2018-03-09T15:06:20.754Z,3.43
2018-03-09T15:08:51.545Z,4.53
2018-03-09T15:11:22.468Z,3.63
2018-03-09T15:13:53.363Z,3.63
2018-03-09T15:16:24.189Z,3.83
2018-03-09T15:18:55.026Z,4.50
2018-03-09T15:21:25.864Z,4.77
2018-03-09T15:23:56.665Z,4.13
2018-03-09T15:26:27.500Z,3.90
2018-03-09T15:28:58.323Z,3.93
2018-03-09T15:31:29.155Z,6.50
2018-03-09T15:34:02.876Z,4.13
2018-03-09T15:36:33.715Z,4.65
2018-03-09T15:39:04.542Z,6.70
2018-03-09T15:41:35.354Z,5.03
2018-03-09T15:44:06.167Z,4.70
2018-03-09T15:46:37.049Z,6.60
2018-03-09T15:49:07.862Z,6.67
2018-03-09T15:51:38.664Z,7.77
2018-03-09T15:54:09.463Z,5.67
2018-03-09T15:56:40.288Z,4.57
2018-03-09T15:59:11.142Z,4.97
2018-03-09T16:01:41.949Z,8.30
2018-03-09T16:04:12.765Z,5.70
2018-03-09T16:06:43.592Z,5.30
2018-03-09T16:09:14.447Z,5.07
2018-03-09T16:11:45.270Z,5.50
2018-03-09T16:14:16.110Z,4.80
2018-03-09T16:16:46.921Z,6.53
2018-03-09T16:19:17.769Z,5.60
2018-03-09T16:21:48.589Z,6.90
2018-03-09T16:24:19.997Z,6.20
2018-03-09T16:26:50.857Z,6.87
2018-03-09T16:29:21.659Z,6.00
2018-03-09T16:31:52.486Z,10.63
2018-03-09T16:34:23.337Z,6.00
2018-03-09T16:36:54.160Z,5.83
2018-03-09T16:39:24.997Z,5.80
2018-03-09T16:41:55.799Z,6.90
2018-03-09T16:44:27.612Z,5.33
2018-03-09T16:46:58.435Z,9.88
2018-03-09T16:49:29.320Z,5.80
2018-03-09T16:52:00.208Z,5.20
2018-03-09T16:54:31.042Z,6.37
2018-03-09T16:57:01.883Z,6.63
2018-03-09T17:02:00.354Z,6.35
2018-03-09T17:04:31.220Z,6.07
2018-03-09T17:07:02.086Z,10.17
2018-03-09T17:09:32.905Z,6.23
2018-03-09T17:12:03.761Z,7.73
2018-03-09T17:14:34.580Z,7.17
2018-03-09T17:17:05.574Z,7.97
2018-03-09T17:19:36.394Z,7.10
2018-03-09T17:22:07.233Z,6.20
2018-03-09T17:24:38.030Z,5.90
2018-03-09T17:27:08.909Z,7.23
2018-03-09T17:29:43.771Z,7.20
2018-03-09T17:32:14.591Z,6.37
2018-03-09T17:34:45.414Z,10.23
2018-03-09T17:37:16.254Z,7.20
2018-03-09T17:39:47.135Z,6.47
2018-03-09T17:42:17.927Z,8.27
2018-03-09T17:44:48.746Z,7.87
2018-03-09T17:47:19.573Z,7.00
2018-03-09T17:49:50.382Z,6.60
2018-03-09T17:52:21.213Z,6.87
2018-03-09T17:54:52.055Z,7.40
2018-03-09T17:57:22.947Z,8.07
2018-03-09T17:59:53.773Z,8.27
2018-03-09T18:02:24.649Z,8.57
2018-03-09T18:04:55.474Z,8.30
2018-03-09T18:07:26.317Z,6.60
2018-03-09T18:09:57.167Z,7.77
2018-03-09T18:12:28.000Z,6.97
2018-03-09T18:14:59.825Z,6.73
2018-03-09T18:17:30.666Z,5.95
2018-03-09T18:20:01.500Z,9.83
2018-03-09T18:22:32.339Z,8.57
2018-03-09T18:25:03.198Z,9.53
2018-03-09T18:27:34.105Z,8.00
2018-03-09T18:30:04.965Z,7.07
2018-03-09T18:32:35.805Z,10.10
2018-03-09T18:35:07.693Z,7.87
2018-03-09T18:37:38.527Z,7.97
2018-03-09T18:40:09.345Z,12.70
2018-03-09T18:42:40.183Z,11.53
2018-03-09T18:45:11.017Z,8.53
2018-03-09T18:47:41.831Z,8.43
2018-03-09T18:50:12.658Z,8.30
2018-03-09T18:52:43.494Z,9.07
2018-03-09T18:55:14.277Z,13.67
2018-03-09T18:57:45.070Z,9.70
2018-03-09T19:00:15.895Z,8.70
2018-03-09T19:02:46.768Z,7.67
2018-03-09T19:05:17.606Z,8.60
2018-03-09T19:07:48.512Z,8.00
2018-03-09T19:10:19.365Z,8.17
2018-03-09T19:12:50.247Z,8.70
2018-03-09T19:15:21.054Z,10.93
2018-03-09T19:17:51.890Z,11.17
2018-03-09T19:20:22.757Z,9.50
2018-03-09T19:22:53.665Z,9.40
2018-03-09T19:25:24.512Z,11.33
2018-03-09T19:27:55.497Z,11.03
2018-03-09T19:30:26.378Z,11.45
2018-03-09T19:32:57.286Z,7.83
2018-03-09T19:35:29.099Z,8.33
2018-03-09T19:38:00.100Z,8.70
2018-03-09T19:40:30.943Z,10.55
2018-03-09T19:43:01.758Z,8.70
2018-03-09T19:45:32.561Z,9.17
2018-03-09T19:48:03.419Z,9.77
2018-03-09T19:50:34.232Z,9.97
2018-03-09T19:53:05.094Z,10.73
2018-03-09T19:55:35.875Z,10.30
2018-03-09T19:58:06.704Z,10.53
2018-03-09T20:00:37.568Z,10.03
2018-03-09T20:03:08.482Z,9.07
2018-03-09T20:05:39.344Z,10.33
2018-03-09T20:08:10.211Z,11.73
2018-03-09T20:10:44.646Z,14.43
2018-03-09T20:13:16.530Z,12.32
2018-03-09T20:15:48.494Z,14.80
2018-03-09T20:18:20.466Z,16.52
2018-03-09T20:20:51.345Z,10.65
2018-03-09T20:23:22.186Z,10.83
2018-03-09T20:25:53.052Z,9.80
2018-03-09T20:28:23.924Z,14.43
2018-03-09T20:30:54.825Z,10.10
2018-03-09T20:33:26.633Z,11.43
2018-03-09T20:35:57.513Z,11.18
2018-03-09T20:38:28.478Z,9.10
2018-03-09T20:40:59.400Z,10.60
2018-03-09T20:43:30.292Z,12.60
2018-03-09T20:46:01.171Z,12.77
2018-03-09T20:48:32.017Z,12.60
2018-03-09T20:51:05.311Z,10.53
2018-03-09T20:53:36.376Z,11.75
2018-03-09T20:56:07.293Z,12.70
2018-03-09T20:58:39.215Z,11.07
2018-03-09T21:01:11.168Z,13.98
2018-03-09T21:03:42.054Z,13.20
2018-03-09T21:06:12.974Z,10.83
2018-03-09T21:08:43.846Z,11.60
2018-03-09T21:11:14.736Z,11.33
2018-03-09T21:13:45.606Z,11.10
2018-03-09T21:16:16.464Z,13.67
2018-03-09T21:18:47.334Z,13.10
2018-03-09T21:21:18.212Z,12.30
2018-03-09T21:23:49.274Z,12.33
2018-03-09T21:26:20.431Z,13.32
2018-03-09T21:28:51.597Z,15.00
2018-03-09T21:31:22.666Z,12.18
2018-03-09T21:33:57.580Z,12.77
2018-03-09T21:36:30.728Z,13.62
2018-03-09T21:39:02.091Z,13.48
2018-03-09T21:41:40.181Z,13.57
2018-03-09T21:44:11.542Z,17.25
2018-03-09T21:46:42.774Z,11.15
2018-03-09T21:49:13.801Z,12.10
2018-03-09T21:51:44.674Z,15.27
2018-03-09T21:57:12.991Z,13.05
2018-03-09T21:59:43.891Z,13.37
2018-03-09T22:02:14.870Z,11.83
2018-03-09T22:04:45.814Z,13.27
2018-03-09T22:07:16.663Z,12.47
2018-03-09T22:09:47.501Z,13.40
2018-03-09T22:12:18.495Z,12.40
2018-03-09T22:14:49.345Z,13.20
2018-03-09T22:17:20.231Z,14.10
2018-03-09T22:19:51.114Z,13.40
2018-03-09T22:22:22.016Z,13.33
2018-03-09T22:24:52.907Z,12.73
2018-03-09T22:27:23.807Z,13.23
2018-03-09T22:29:54.640Z,13.30
2018-03-09T22:32:25.550Z,11.67
2018-03-09T22:34:56.403Z,11.97
2018-03-09T22:37:27.225Z,12.50
2018-03-09T22:39:58.065Z,15.80
2018-03-09T22:42:28.927Z,11.80
2018-03-09T22:44:59.800Z,12.53
2018-03-09T22:47:30.642Z,12.47
2018-03-09T22:50:01.523Z,17.20
2018-03-09T22:52:32.396Z,12.27
2018-03-09T22:55:03.280Z,13.27
2018-03-09T22:57:34.149Z,11.80
2018-03-09T23:00:04.968Z,12.53
2018-03-09T23:02:35.905Z,15.50
2018-03-09T23:05:06.745Z,15.17
2018-03-09T23:07:37.601Z,13.80
2018-03-09T23:10:08.494Z,14.70
2018-03-09T23:12:39.406Z,16.63
2018-03-09T23:15:10.238Z,13.90
2018-03-09T23:17:41.179Z,12.87
2018-03-09T23:20:12.053Z,12.87
2018-03-09T23:22:42.940Z,13.43
2018-03-09T23:25:13.761Z,14.60
2018-03-09T23:27:44.595Z,13.87
2018-03-09T23:30:15.433Z,14.77
2018-03-09T23:32:46.395Z,13.57
2018-03-09T23:35:17.232Z,13.00
2018-03-09T23:37:48.093Z,13.20
2018-03-09T23:40:18.922Z,18.43
2018-03-09T23:42:49.746Z,16.37
2018-03-09T23:45:20.581Z,13.13
2018-03-09T23:47:51.423Z,14.73
2018-03-09T23:50:22.234Z,13.20
2018-03-09T23:52:53.040Z,14.93
2018-03-09T23:55:23.933Z,14.67
2018-03-09T23:57:54.835Z,13.47
